Time;durP1;ratioP1;P1;durP2;ratioP2;P2;SDS_P1;SDS_P2;PMS_P1;PMS_P2;Temp;Humidity;BMP_temperature;BMP_pressure;BME280_temperature;BME280_humidity;BME280_pressure;Samples;Min_cycle;Max_cycle;Signal;HPM_P1;HPM_P2
2023/04/29 00:00:11;;;;;;;19.60;7.30;;;;;;;4.33;60.40;101450.27;107578;1251;110391;-61
2023/04/29 00:03:00;;;;;;;14.80;7.50;;;;;;;4.32;60.85;101450.00;107618;1251;109795;-62
2023/04/29 00:05:29;;;;;;;17.40;7.60;;;;;;;4.28;61.11;101450.17;107629;1251;108201;-61
2023/04/29 00:08:00;;;;;;;13.70;8.00;;;;;;;4.11;61.82;101445.57;107593;1251;96500;-59
2023/04/29 00:10:29;;;;;;;10.50;7.00;;;;;;;3.92;61.91;101449.33;107686;1251;97018;-60
2023/04/29 00:12:58;;;;;;;16.30;7.80;;;;;;;3.83;61.65;101449.98;107650;1251;110502;-61
2023/04/29 00:15:27;;;;;;;10.60;6.60;;;;;;;3.76;62.07;101452.77;107621;1250;109193;-60
2023/04/29 00:17:55;;;;;;;15.10;7.60;;;;;;;3.71;62.29;101453.91;107598;1251;108700;-61
2023/04/29 00:20:23;;;;;;;21.60;9.60;;;;;;;3.69;62.14;101451.00;107580;1251;96466;-62
2023/04/29 00:22:52;;;;;;;16.10;7.00;;;;;;;3.70;62.18;101451.48;107653;1251;97013;-61
2023/04/29 00:25:20;;;;;;;11.60;7.40;;;;;;;3.71;62.44;101451.60;107618;1251;109805;-60
2023/04/29 00:27:48;;;;;;;18.30;8.00;;;;;;;3.69;62.29;101453.12;107608;1251;110122;-61
2023/04/29 00:30:17;;;;;;;12.20;7.10;;;;;;;3.67;62.33;101450.20;107609;1254;106773;-60
2023/04/29 00:32:45;;;;;;;17.30;7.30;;;;;;;3.69;62.09;101451.71;107595;1251;96507;-59
2023/04/29 00:35:14;;;;;;;14.10;6.90;;;;;;;3.70;62.47;101452.90;107600;1251;96500;-60
2023/04/29 00:37:43;;;;;;;14.40;7.70;;;;;;;3.68;62.29;101454.04;107639;1251;109768;-61
2023/04/29 00:40:13;;;;;;;15.30;8.30;;;;;;;3.69;62.22;101452.05;107637;1256;108989;-60
2023/04/29 00:42:42;;;;;;;19.20;7.00;;;;;;;3.72;62.10;101454.59;107573;1256;107668;-60
2023/04/29 00:45:11;;;;;;;14.00;7.50;;;;;;;3.68;62.71;101456.02;107591;1251;96474;-60
2023/04/29 00:47:39;;;;;;;15.40;7.20;;;;;;;3.64;62.58;101456.39;107623;1252;96468;-61
2023/04/29 00:50:08;;;;;;;15.80;7.00;;;;;;;3.56;63.15;101455.00;107584;1251;111608;-60
2023/04/29 00:52:38;;;;;;;17.70;6.70;;;;;;;3.45;63.92;101454.61;107396;1251;110150;-60
2023/04/29 00:55:08;;;;;;;17.00;7.10;;;;;;;3.36;63.62;101460.01;107594;1251;108863;-62
2023/04/29 00:57:37;;;;;;;17.10;6.70;;;;;;;3.28;64.27;101464.63;107583;1251;96482;-60
2023/04/29 01:00:08;;;;;;;8.80;6.60;;;;;;;3.24;64.38;101465.04;107555;1251;96532;-59
2023/04/29 01:02:38;;;;;;;15.50;6.70;;;;;;;3.23;65.18;101467.73;107581;1251;109596;-61
2023/04/29 01:05:06;;;;;;;17.70;7.30;;;;;;;3.24;64.80;101468.17;107629;1251;109000;-61
2023/04/29 01:08:05;;;;;;;13.70;7.40;;;;;;;3.27;65.15;101470.19;107532;1254;108264;-61
2023/04/29 01:11:01;;;;;;;15.00;7.30;;;;;;;3.26;65.06;101468.82;107338;1255;96467;-60
2023/04/29 01:13:44;;;;;;;11.70;6.40;;;;;;;3.22;65.18;101475.39;107548;1254;96477;-60
2023/04/29 01:16:30;;;;;;;18.50;8.40;;;;;;;3.19;64.81;101474.08;107589;1255;110668;-60
2023/04/29 01:19:25;;;;;;;15.20;7.10;;;;;;;3.18;65.35;101480.69;107573;1251;107813;-60
2023/04/29 01:21:53;;;;;;;12.40;7.20;;;;;;;3.18;65.26;101475.73;107526;1251;107764;-61
2023/04/29 01:24:21;;;;;;;13.10;7.40;;;;;;;3.15;65.45;101475.86;107561;1256;96472;-60
2023/04/29 01:27:32;;;;;;;13.90;6.30;;;;;;;3.11;65.17;101477.14;107600;1255;96993;-60
2023/04/29 01:30:19;;;;;;;16.40;7.60;;;;;;;3.11;65.16;101480.14;107512;1251;110542;-60
2023/04/29 01:33:16;;;;;;;15.40;6.30;;;;;;;3.12;65.82;101474.94;107573;1251;109299;-60
2023/04/29 01:36:04;;;;;;;10.90;6.90;;;;;;;3.09;65.60;101473.15;107530;1255;108138;-60
2023/04/29 01:38:40;;;;;;;12.70;6.80;;;;;;;3.06;65.65;101471.67;107541;1251;96616;-64
2023/04/29 01:41:22;;;;;;;15.10;6.70;;;;;;;3.03;65.75;101473.61;107644;1251;96500;-61
2023/04/29 01:43:57;;;;;;;10.30;5.90;;;;;;;2.98;65.63;101472.20;107574;1251;110467;-60
2023/04/29 01:46:29;;;;;;;11.00;6.60;;;;;;;2.93;66.37;101470.50;107618;1256;108813;-61
2023/04/29 01:48:59;;;;;;;15.50;7.10;;;;;;;2.84;66.58;101468.23;107524;1251;108527;-61
2023/04/29 01:51:28;;;;;;;13.10;7.40;;;;;;;2.75;66.92;101468.30;107628;1256;96487;-62
2023/04/29 01:53:57;;;;;;;15.10;7.40;;;;;;;2.68;66.60;101466.30;107661;1251;96462;-61
2023/04/29 01:56:26;;;;;;;13.70;7.60;;;;;;;2.64;66.14;101465.74;107588;1255;111048;-61
2023/04/29 01:59:07;;;;;;;13.70;7.40;;;;;;;2.67;67.02;101465.61;107499;1257;109536;-60
2023/04/29 02:01:55;;;;;;;13.90;7.60;;;;;;;2.64;67.48;101460.81;107558;1257;108290;-60
2023/04/29 02:04:25;;;;;;;14.90;7.50;;;;;;;2.57;67.71;101460.59;107586;1256;96590;-59
2023/04/29 02:06:53;;;;;;;18.10;7.60;;;;;;;2.51;67.32;101459.95;107606;1251;96433;-60
2023/04/29 02:09:22;;;;;;;13.50;7.10;;;;;;;2.50;67.33;101459.63;107563;1254;110238;-59
2023/04/29 02:11:53;;;;;;;13.90;7.90;;;;;;;2.50;67.03;101456.80;107617;1254;111134;-60
2023/04/29 02:14:22;;;;;;;14.80;7.80;;;;;;;2.56;66.62;101460.07;107516;1257;109489;-60
2023/04/29 02:16:51;;;;;;;14.00;8.00;;;;;;;2.63;66.76;101465.27;107635;1254;96561;-60
2023/04/29 02:19:20;;;;;;;13.00;7.40;;;;;;;2.66;66.68;101462.84;107504;1251;97083;-60
2023/04/29 02:21:50;;;;;;;13.40;7.20;;;;;;;2.67;66.53;101466.51;107591;1251;110308;-60
2023/04/29 02:24:19;;;;;;;13.60;7.10;;;;;;;2.71;66.17;101469.19;107578;1251;109800;-61
2023/04/29 02:26:48;;;;;;;15.50;7.70;;;;;;;2.76;66.30;101469.32;107587;1251;107977;-59
2023/04/29 02:29:16;;;;;;;24.00;8.10;;;;;;;2.81;66.40;101468.17;107610;1251;96339;-60
2023/04/29 02:31:45;;;;;;;14.50;7.60;;;;;;;2.87;66.42;101469.16;107554;1255;96992;-59
2023/04/29 02:34:13;;;;;;;11.70;7.10;;;;;;;2.91;66.32;101471.27;107646;1251;111073;-61
2023/04/29 02:36:42;;;;;;;16.10;7.30;;;;;;;2.91;66.05;101464.20;107574;1254;109544;-60
2023/04/29 02:39:11;;;;;;;24.00;8.20;;;;;;;2.90;66.10;101467.27;107529;1251;108698;-60
2023/04/29 02:41:40;;;;;;;12.40;7.20;;;;;;;2.92;65.93;101469.84;107555;1251;96462;-62
2023/04/29 02:44:11;;;;;;;12.60;6.20;;;;;;;2.93;65.67;101469.25;107599;1251;96443;-61
2023/04/29 02:46:44;;;;;;;11.30;6.60;;;;;;;2.93;65.82;101467.29;107556;1251;110302;-60
2023/04/29 02:49:13;;;;;;;13.50;7.40;;;;;;;2.93;65.76;101465.38;107540;1251;109893;-60
2023/04/29 02:51:42;;;;;;;17.80;7.50;;;;;;;2.94;65.80;101465.67;107555;1257;107404;-60
2023/04/29 02:54:10;;;;;;;13.00;7.70;;;;;;;2.95;65.71;101467.39;107633;1254;96730;-59
2023/04/29 02:56:39;;;;;;;14.50;6.60;;;;;;;2.92;65.58;101468.59;107600;1251;96379;-59
2023/04/29 02:59:07;;;;;;;16.80;6.80;;;;;;;2.89;65.76;101465.19;107500;1254;112065;-59
2023/04/29 03:01:37;;;;;;;16.00;7.70;;;;;;;2.87;65.87;101468.79;107598;1256;109628;-60
2023/04/29 03:04:06;;;;;;;25.90;7.50;;;;;;;2.86;65.92;101467.97;107592;1251;108731;-61
2023/04/29 03:06:35;;;;;;;18.30;8.10;;;;;;;2.81;65.76;101477.23;107649;1251;96783;-61
2023/04/29 03:09:04;;;;;;;20.80;7.90;;;;;;;2.80;66.15;101478.35;107551;1257;96556;-59
2023/04/29 03:11:32;;;;;;;16.60;7.30;;;;;;;2.79;65.91;101485.83;107628;1257;109734;-60
2023/04/29 03:14:01;;;;;;;13.10;6.80;;;;;;;2.78;66.13;101480.39;107659;1256;109882;-61
2023/04/29 03:16:30;;;;;;;15.60;7.70;;;;;;;2.78;66.18;101479.46;107643;1256;107570;-60
2023/04/29 03:18:58;;;;;;;13.80;7.70;;;;;;;2.77;66.13;101486.77;107402;1254;96933;-61
2023/04/29 03:21:28;;;;;;;19.80;6.70;;;;;;;2.74;66.29;101487.80;107533;1257;96395;-60
2023/04/29 03:23:57;;;;;;;14.20;7.20;;;;;;;2.72;66.48;101492.68;107622;1251;111319;-61
2023/04/29 03:26:31;;;;;;;25.70;8.30;;;;;;;2.71;66.40;101493.07;107575;1251;108137;-60
2023/04/29 03:28:59;;;;;;;29.00;8.00;;;;;;;2.70;66.35;101491.20;107627;1251;107638;-59
2023/04/29 03:31:28;;;;;;;13.00;8.20;;;;;;;2.69;66.37;101493.91;107459;1254;96482;-60
2023/04/29 03:33:57;;;;;;;21.60;8.00;;;;;;;2.67;66.44;101494.50;107537;1254;96500;-61
2023/04/29 03:36:26;;;;;;;16.60;7.30;;;;;;;2.66;66.78;101495.42;107644;1254;109886;-60
2023/04/29 03:39:07;;;;;;;25.60;9.40;;;;;;;2.60;66.54;101497.43;107588;1251;110151;-58
2023/04/29 03:41:36;;;;;;;15.30;7.80;;;;;;;2.61;66.56;101500.95;107622;1251;108334;-61
2023/04/29 03:44:05;;;;;;;25.70;7.70;;;;;;;2.61;66.82;101498.47;107616;1251;96498;-59
2023/04/29 03:46:33;;;;;;;16.20;9.00;;;;;;;2.63;67.05;101501.05;107625;1251;97169;-60
2023/04/29 03:49:03;;;;;;;20.80;9.50;;;;;;;2.66;66.76;101503.40;107537;1254;110272;-60
2023/04/29 03:51:32;;;;;;;17.50;8.70;;;;;;;2.68;66.81;101511.29;107465;1254;110122;-61
2023/04/29 03:54:10;;;;;;;21.40;9.30;;;;;;;2.69;66.76;101508.58;107480;1257;107710;-61
2023/04/29 03:56:38;;;;;;;21.10;9.80;;;;;;;2.70;66.86;101509.23;107594;1253;96488;-62
2023/04/29 03:59:07;;;;;;;25.30;9.70;;;;;;;2.71;66.80;101512.02;107592;1251;96581;-61
2023/04/29 04:01:36;;;;;;;27.20;8.90;;;;;;;2.73;66.65;101510.16;107611;1254;110407;-59
2023/04/29 04:04:05;;;;;;;24.10;9.10;;;;;;;2.76;66.50;101516.63;107714;1254;109763;-58
2023/04/29 04:06:35;;;;;;;20.50;9.20;;;;;;;2.78;66.43;101514.90;107590;1250;107804;-59
2023/04/29 04:09:03;;;;;;;22.10;10.40;;;;;;;2.79;66.59;101518.59;107540;1251;96478;-61
2023/04/29 04:11:35;;;;;;;19.20;10.10;;;;;;;2.79;66.41;101516.09;107527;1251;97134;-60
2023/04/29 04:14:04;;;;;;;21.90;9.60;;;;;;;2.84;66.35;101511.11;107516;1251;110476;-61
2023/04/29 04:16:33;;;;;;;30.90;13.60;;;;;;;2.92;66.44;101513.95;107544;1251;110125;-61
2023/04/29 04:19:01;;;;;;;59.30;29.20;;;;;;;2.99;66.29;101506.41;107576;1251;106224;-61
2023/04/29 04:21:32;;;;;;;25.60;12.50;;;;;;;3.03;66.21;101508.33;107466;1251;96469;-60
2023/04/29 04:24:06;;;;;;;19.60;8.70;;;;;;;3.06;66.26;101507.66;107499;1254;96341;-60
2023/04/29 04:26:34;;;;;;;24.50;10.20;;;;;;;3.04;66.50;101506.48;107597;1251;111911;-59
2023/04/29 04:29:08;;;;;;;24.50;9.40;;;;;;;3.03;66.47;101503.02;107557;1251;109590;-60
2023/04/29 04:31:59;;;;;;;15.60;8.70;;;;;;;3.09;66.66;101505.91;107641;1251;108154;-59
2023/04/29 04:34:28;;;;;;;24.00;9.10;;;;;;;3.18;66.35;101512.08;107490;1257;96456;-60
2023/04/29 04:36:57;;;;;;;16.50;8.20;;;;;;;3.27;66.18;101514.35;107573;1251;96477;-60
2023/04/29 04:39:26;;;;;;;18.40;10.00;;;;;;;3.35;66.19;101515.94;107571;1250;109950;-64
2023/04/29 04:41:56;;;;;;;19.40;8.10;;;;;;;3.41;66.06;101519.89;107473;1251;109312;-60
2023/04/29 04:44:25;;;;;;;12.70;7.50;;;;;;;3.46;65.68;101520.38;107598;1251;107449;-61
2023/04/29 04:47:16;;;;;;;17.10;7.90;;;;;;;3.54;65.85;101516.09;107447;1251;96459;-61
2023/04/29 04:49:58;;;;;;;14.50;8.00;;;;;;;3.60;65.61;101519.34;107510;1251;96467;-60
2023/04/29 04:52:26;;;;;;;20.90;8.80;;;;;;;3.61;65.27;101517.02;107547;1251;109860;-60
2023/04/29 04:55:17;;;;;;;18.50;9.00;;;;;;;3.66;65.37;101518.57;107502;1251;108572;-61
2023/04/29 04:57:46;;;;;;;15.50;8.00;;;;;;;3.72;65.21;101512.58;107508;1251;108703;-60
2023/04/29 05:00:15;;;;;;;25.30;9.20;;;;;;;3.78;65.12;101517.99;107478;1251;96565;-60
2023/04/29 05:02:44;;;;;;;23.30;8.80;;;;;;;3.83;64.85;101518.82;107554;1254;96478;-60
2023/04/29 05:05:13;;;;;;;20.90;7.20;;;;;;;3.86;64.77;101511.23;107587;1254;109989;-59
2023/04/29 05:07:42;;;;;;;14.00;7.40;;;;;;;3.85;64.56;101509.50;107499;1254;109888;-60
2023/04/29 05:10:11;;;;;;;17.70;7.50;;;;;;;3.84;64.12;101512.05;107551;1254;108452;-61
2023/04/29 05:12:45;;;;;;;10.00;7.00;;;;;;;3.83;64.26;101514.37;107579;1251;96637;-60
2023/04/29 05:15:15;;;;;;;24.00;7.60;;;;;;;3.86;64.11;101512.63;107537;1254;97020;-61
2023/04/29 05:17:44;;;;;;;12.50;7.30;;;;;;;3.92;64.13;101516.95;107548;1254;109882;-60
2023/04/29 05:20:13;;;;;;;13.10;6.50;;;;;;;3.97;63.56;101512.30;107466;1254;109894;-60
2023/04/29 05:22:41;;;;;;;18.90;7.60;;;;;;;4.01;63.23;101510.49;107481;1253;107971;-61
2023/04/29 05:25:10;;;;;;;14.30;6.50;;;;;;;4.06;63.17;101514.14;107520;1254;96343;-60
2023/04/29 05:27:39;;;;;;;10.20;6.30;;;;;;;4.13;62.67;101515.79;107520;1254;96990;-61
2023/04/29 05:30:11;;;;;;;11.00;6.10;;;;;;;4.20;62.81;101518.98;107477;1254;111798;-63
2023/04/29 05:32:39;;;;;;;15.80;7.40;;;;;;;4.28;62.64;101516.61;107598;1251;109748;-61
2023/04/29 05:35:09;;;;;;;15.90;7.00;;;;;;;4.34;62.45;101512.92;107622;1251;108016;-60
2023/04/29 05:37:38;;;;;;;17.70;7.50;;;;;;;4.40;62.25;101507.14;107481;1251;96482;-60
2023/04/29 05:40:27;;;;;;;16.60;7.70;;;;;;;4.48;62.13;101518.13;107431;1250;97058;-60
2023/04/29 05:43:08;;;;;;;17.90;7.90;;;;;;;4.53;62.22;101513.91;107505;1260;109824;-60
2023/04/29 05:45:37;;;;;;;17.70;8.00;;;;;;;4.61;61.79;101510.68;107525;1251;109651;-61
2023/04/29 05:48:06;;;;;;;15.80;7.30;;;;;;;4.68;61.53;101507.48;107652;1257;108713;-61
2023/04/29 05:50:35;;;;;;;24.60;7.50;;;;;;;4.74;61.26;101507.52;107520;1251;96465;-61
2023/04/29 05:53:04;;;;;;;14.50;6.90;;;;;;;4.80;61.09;101506.51;107505;1251;96378;-61
2023/04/29 05:55:33;;;;;;;23.20;7.30;;;;;;;4.85;60.77;101504.08;107579;1254;111854;-60
2023/04/29 05:58:01;;;;;;;31.20;7.30;;;;;;;4.93;60.68;101507.95;107518;1251;109598;-61
2023/04/29 06:00:30;;;;;;;16.10;7.40;;;;;;;5.01;60.59;101502.39;107536;1251;108646;-60
2023/04/29 06:03:01;;;;;;;15.70;7.10;;;;;;;5.11;60.12;101500.42;107482;1252;96681;-61
2023/04/29 06:05:30;;;;;;;22.50;7.60;;;;;;;5.21;59.85;101498.45;107612;1254;96986;-60
2023/04/29 06:08:18;;;;;;;18.20;7.80;;;;;;;5.29;60.15;101495.75;107509;1251;110423;-61
2023/04/29 06:10:53;;;;;;;17.70;8.00;;;;;;;5.35;59.85;101492.19;107608;1251;110039;-63
2023/04/29 06:13:29;;;;;;;18.20;8.60;;;;;;;5.43;59.99;101492.84;107607;1256;107182;-62
2023/04/29 06:16:10;;;;;;;12.90;8.20;;;;;;;5.50;59.68;101495.32;107509;1251;96590;-60
2023/04/29 06:18:38;;;;;;;16.60;8.50;;;;;;;5.56;59.64;101493.52;107493;1251;97023;-59
2023/04/29 06:21:07;;;;;;;18.80;9.00;;;;;;;5.65;59.79;101487.70;107658;1256;110533;-61
2023/04/29 06:23:36;;;;;;;18.60;8.40;;;;;;;5.75;59.71;101494.41;107492;1251;110011;-59
2023/04/29 06:26:10;;;;;;;23.80;9.30;;;;;;;5.83;59.41;101494.14;107565;1251;108473;-60
2023/04/29 06:28:39;;;;;;;21.60;8.80;;;;;;;5.91;59.61;101491.00;107500;1251;96476;-62
2023/04/29 06:31:08;;;;;;;16.10;8.50;;;;;;;6.01;59.41;101485.54;107607;1251;96545;-60
2023/04/29 06:33:37;;;;;;;14.90;7.00;;;;;;;6.11;58.98;101481.21;107602;1250;108923;-60
2023/04/29 06:36:05;;;;;;;17.70;7.90;;;;;;;6.22;58.71;101479.31;107547;1251;109925;-61
2023/04/29 06:38:36;;;;;;;14.80;7.70;;;;;;;6.33;58.55;101472.41;107568;1251;107795;-61
2023/04/29 06:41:40;;;;;;;25.60;10.40;;;;;;;6.46;58.64;101472.56;106875;1263;97292;-62
2023/04/29 06:44:23;;;;;;;25.10;8.70;;;;;;;6.58;58.55;101472.73;107450;1251;96460;-61
2023/04/29 06:47:00;;;;;;;21.00;9.40;;;;;;;6.72;58.32;101471.33;107574;1254;110593;-62
2023/04/29 06:49:43;;;;;;;14.60;7.70;;;;;;;6.83;58.04;101472.08;107586;1251;110044;-61
2023/04/29 06:52:12;;;;;;;19.90;6.30;;;;;;;6.92;57.21;101468.15;107587;1254;107652;-62
2023/04/29 06:54:43;;;;;;;8.40;4.90;;;;;;;7.02;56.77;101464.85;107446;1257;96468;-62
2023/04/29 06:57:11;;;;;;;9.60;3.80;;;;;;;7.14;55.73;101459.12;107600;1250;97012;-62
2023/04/29 06:59:40;;;;;;;12.00;3.90;;;;;;;7.26;55.22;101457.52;107584;1251;110457;-62
2023/04/29 07:02:08;;;;;;;15.50;4.80;;;;;;;7.35;55.17;101458.00;107563;1250;109052;-61
2023/04/29 07:04:36;;;;;;;19.30;4.50;;;;;;;7.47;54.58;101452.17;107585;1254;109526;-61
2023/04/29 07:07:05;;;;;;;9.30;3.50;;;;;;;7.61;53.77;101453.13;107604;1251;96644;-61
2023/04/29 07:09:34;;;;;;;9.50;3.70;;;;;;;7.77;53.33;101449.38;107622;1251;98191;-60
2023/04/29 07:12:05;;;;;;;13.20;4.30;;;;;;;7.93;52.97;101450.64;107625;1251;110231;-62
2023/04/29 07:14:33;;;;;;;9.20;3.80;;;;;;;8.09;52.87;101443.86;107509;1254;108731;-62
2023/04/29 07:17:02;;;;;;;10.40;3.90;;;;;;;8.20;52.58;101440.27;107580;1251;108144;-61
2023/04/29 07:19:31;;;;;;;17.00;4.40;;;;;;;8.30;51.97;101433.49;107543;1254;96495;-62
2023/04/29 07:22:00;;;;;;;10.40;3.60;;;;;;;8.39;51.49;101435.77;107647;1251;97019;-61
2023/04/29 07:24:28;;;;;;;42.60;19.80;;;;;;;8.47;51.81;101435.42;107667;1251;110898;-60
2023/04/29 07:26:56;;;;;;;8.60;3.80;;;;;;;8.68;48.16;101430.42;107609;1254;109751;-61
2023/04/29 07:29:24;;;;;;;9.00;5.00;;;;;;;8.95;46.72;101432.25;107488;1254;108557;-61
2023/04/29 07:31:53;;;;;;;5.00;2.30;;;;;;;9.12;46.84;101428.07;107478;1253;96459;-60
2023/04/29 07:34:23;;;;;;;9.00;2.50;;;;;;;9.30;45.02;101424.08;107611;1255;96470;-59
2023/04/29 07:36:51;;;;;;;11.70;2.70;;;;;;;9.43;44.83;101420.64;107525;1254;110915;-60
2023/04/29 07:39:20;;;;;;;8.50;3.00;;;;;;;9.53;45.05;101415.04;107620;1254;108714;-60
2023/04/29 07:41:52;;;;;;;17.70;3.00;;;;;;;9.70;43.95;101414.48;107546;1250;107860;-61
2023/04/29 07:44:21;;;;;;;9.90;3.00;;;;;;;9.88;43.81;101414.03;107560;1251;96417;-61
2023/04/29 07:46:51;;;;;;;39.20;5.30;;;;;;;10.03;43.37;101415.61;107537;1254;96391;-61
2023/04/29 07:49:19;;;;;;;14.80;3.00;;;;;;;10.17;43.25;101411.84;107570;1254;110511;-61
2023/04/29 07:51:48;;;;;;;14.90;2.50;;;;;;;10.32;42.71;101411.79;107540;1254;108439;-62
2023/04/29 07:54:18;;;;;;;7.80;2.40;;;;;;;10.48;42.11;101406.63;107485;1254;108153;-61
2023/04/29 07:56:46;;;;;;;7.80;1.30;;;;;;;10.60;41.28;101403.06;107592;1251;96444;-62
2023/04/29 07:59:15;;;;;;;3.60;1.90;;;;;;;10.73;39.34;101401.16;106839;1250;998560;-63
2023/04/29 08:01:43;;;;;;;8.10;2.80;;;;;;;10.83;40.01;101398.92;107583;1251;109910;-63
2023/04/29 08:04:12;;;;;;;6.40;2.00;;;;;;;10.94;39.23;101397.28;107593;1250;110282;-63
2023/04/29 08:06:48;;;;;;;6.10;2.60;;;;;;;11.05;39.97;101402.73;107631;1251;108353;-61
2023/04/29 08:09:17;;;;;;;5.00;1.80;;;;;;;11.16;39.55;101400.79;107574;1251;96455;-62
2023/04/29 08:11:45;;;;;;;7.30;2.40;;;;;;;11.27;40.08;101394.52;107571;1251;97031;-62
2023/04/29 08:14:14;;;;;;;12.50;2.30;;;;;;;11.38;40.22;101392.86;107574;1254;109874;-62
2023/04/29 08:16:42;;;;;;;6.50;2.20;;;;;;;11.46;39.06;101389.50;107627;1254;109259;-62
2023/04/29 08:19:11;;;;;;;8.50;2.50;;;;;;;11.54;40.08;101393.38;107619;1251;108645;-61
2023/04/29 08:21:40;;;;;;;8.00;2.60;;;;;;;11.63;39.73;101387.21;107527;1253;96572;-62
2023/04/29 08:24:08;;;;;;;10.30;2.20;;;;;;;11.72;39.31;101379.27;107623;1251;96612;-62
2023/04/29 08:26:39;;;;;;;8.00;2.10;;;;;;;11.89;39.25;101375.92;107575;1251;109974;-63
2023/04/29 08:29:08;;;;;;;11.40;2.60;;;;;;;12.04;38.33;101374.50;107608;1251;109049;-63
2023/04/29 08:31:36;;;;;;;17.40;2.50;;;;;;;12.18;37.57;101369.71;107596;1254;107671;-61
2023/04/29 08:34:04;;;;;;;5.60;1.70;;;;;;;12.34;37.28;101370.83;107599;1254;96497;-62
2023/04/29 08:36:33;;;;;;;3.80;1.60;;;;;;;12.51;37.05;101370.98;107659;1251;96978;-62
2023/04/29 08:39:02;;;;;;;9.20;1.70;;;;;;;12.64;35.71;101366.80;107567;1254;110972;-63
2023/04/29 08:41:33;;;;;;;6.70;1.30;;;;;;;12.77;33.54;101361.14;107590;1253;111255;-62
2023/04/29 08:44:02;;;;;;;2.70;1.20;;;;;;;12.89;31.13;101363.17;107628;1251;108028;-60
2023/04/29 08:46:31;;;;;;;5.20;1.30;;;;;;;12.88;32.71;101364.72;107665;1251;96465;-62
2023/04/29 08:49:02;;;;;;;3.80;1.90;;;;;;;12.96;33.02;101361.50;107573;1251;96414;-61
2023/04/29 08:51:32;;;;;;;5.10;1.60;;;;;;;13.09;33.57;101357.64;107610;1251;111259;-63
2023/04/29 08:54:00;;;;;;;7.20;1.40;;;;;;;13.24;33.10;101350.19;107553;1251;110149;-62
2023/04/29 08:56:30;;;;;;;6.00;1.30;;;;;;;13.45;32.39;101346.34;107627;1251;109228;-61
2023/04/29 08:59:00;;;;;;;3.40;2.00;;;;;;;13.65;32.10;101342.30;107542;1250;96357;-63
2023/04/29 09:01:29;;;;;;;2.70;1.20;;;;;;;13.85;32.04;101345.33;107499;1251;96993;-63
2023/04/29 09:04:15;;;;;;;4.20;1.20;;;;;;;13.98;30.82;101343.80;107586;1251;110207;-60
2023/04/29 09:06:43;;;;;;;2.40;1.10;;;;;;;14.12;31.32;101348.27;107550;1251;108666;-61
2023/04/29 09:09:14;;;;;;;3.00;1.10;;;;;;;14.30;31.15;101349.80;107615;1255;108143;-62
2023/04/29 09:11:42;;;;;;;3.00;1.30;;;;;;;14.53;30.34;101344.34;107610;1251;96563;-61
2023/04/29 09:14:11;;;;;;;5.10;1.20;;;;;;;14.78;29.90;101338.23;107567;1251;96467;-62
2023/04/29 09:16:40;;;;;;;2.60;1.00;;;;;;;15.00;29.49;101331.34;107634;1254;110470;-61
2023/04/29 09:19:09;;;;;;;3.00;0.90;;;;;;;15.25;29.06;101325.06;107529;1251;110133;-61
2023/04/29 09:21:37;;;;;;;3.30;1.40;;;;;;;15.56;29.19;101316.55;107490;1251;108522;-63
2023/04/29 09:24:05;;;;;;;4.90;1.30;;;;;;;15.94;28.31;101313.45;107514;1251;96474;-61
2023/04/29 09:26:42;;;;;;;6.50;1.30;;;;;;;16.34;27.91;101307.30;107514;1251;97000;-62
2023/04/29 09:29:13;;;;;;;7.60;1.30;;;;;;;16.82;27.75;101309.95;107506;1251;110862;-61
2023/04/29 09:31:41;;;;;;;7.20;1.20;;;;;;;17.38;28.09;101306.36;107578;1251;110564;-62
2023/04/29 09:34:11;;;;;;;6.60;1.00;;;;;;;18.07;26.51;101305.27;107566;1254;107872;-62
2023/04/29 09:36:47;;;;;;;8.50;1.70;;;;;;;18.67;26.50;101298.30;107592;1251;97113;-61
2023/04/29 09:39:18;;;;;;;3.10;1.10;;;;;;;19.33;25.38;101296.60;107536;1251;97080;-61
2023/04/29 09:41:49;;;;;;;3.50;1.50;;;;;;;19.88;25.14;101296.91;107529;1251;110109;-64
2023/04/29 09:44:22;;;;;;;2.40;1.10;;;;;;;20.39;25.24;101288.73;107551;1251;110200;-61
2023/04/29 09:46:56;;;;;;;5.60;1.00;;;;;;;20.92;24.27;101284.55;107636;1250;108666;-62
2023/04/29 09:49:27;;;;;;;4.50;1.70;;;;;;;21.39;23.14;101283.70;107533;1250;96560;-62
2023/04/29 09:51:58;;;;;;;1.70;0.90;;;;;;;21.71;23.49;101281.03;107572;1251;96388;-63
2023/04/29 09:54:28;;;;;;;1.30;0.70;;;;;;;22.12;22.19;101275.44;107554;1251;110245;-61
2023/04/29 09:56:58;;;;;;;7.50;1.40;;;;;;;22.30;20.95;101270.06;107523;1251;109558;-63
2023/04/29 09:59:27;;;;;;;10.60;1.90;;;;;;;22.43;20.60;101266.95;107609;1253;108720;-62
2023/04/29 10:01:56;;;;;;;11.10;2.20;;;;;;;22.44;20.59;101268.36;107649;1251;96462;-63
2023/04/29 10:04:26;;;;;;;5.00;1.60;;;;;;;22.55;21.54;101270.69;107549;1251;96332;-63
2023/04/29 10:06:55;;;;;;;1.80;0.90;;;;;;;22.93;21.14;101265.69;107719;1251;110489;-62
2023/04/29 10:09:23;;;;;;;2.00;1.10;;;;;;;23.39;20.59;101265.77;107548;1251;109687;-61
2023/04/29 10:11:53;;;;;;;6.70;2.00;;;;;;;23.69;20.55;101259.89;107470;1251;108199;-62
2023/04/29 10:14:23;;;;;;;5.20;1.10;;;;;;;24.11;20.40;101255.23;107553;1251;96341;-63
2023/04/29 10:17:02;;;;;;;3.90;1.20;;;;;;;24.62;19.99;101250.09;107563;1251;96443;-63
2023/04/29 10:19:44;;;;;;;15.90;2.30;;;;;;;24.98;18.90;101244.23;107669;1251;111065;-62
2023/04/29 10:22:26;;;;;;;41.80;2.30;;;;;;;25.09;18.45;101238.08;107669;1251;109641;-62
2023/04/29 10:24:58;;;;;;;9.30;2.40;;;;;;;25.19;17.92;101233.02;107510;1251;108575;-62
2023/04/29 10:27:28;;;;;;;5.70;1.30;;;;;;;25.19;18.29;101229.92;107568;1251;96561;-62
2023/04/29 10:29:59;;;;;;;3.90;0.90;;;;;;;25.43;18.72;101235.65;107575;1251;96480;-62
2023/04/29 10:32:29;;;;;;;8.60;1.60;;;;;;;25.76;18.69;101232.32;107538;1253;110911;-62
2023/04/29 10:35:09;;;;;;;4.80;1.10;;;;;;;25.96;17.90;101232.09;107623;1253;109252;-62
2023/04/29 10:37:38;;;;;;;3.00;1.00;;;;;;;26.20;18.19;101226.64;107618;1251;107835;-62
2023/04/29 10:40:19;;;;;;;12.70;1.20;;;;;;;26.57;17.07;101228.77;107557;1254;96356;-62
2023/04/29 10:42:50;;;;;;;9.70;1.30;;;;;;;26.54;16.58;101229.02;107524;1254;96458;-63
2023/04/29 10:45:30;;;;;;;7.90;1.20;;;;;;;26.47;17.01;101229.54;107691;1250;111156;-64
2023/04/29 10:48:05;;;;;;;2.40;0.90;;;;;;;26.66;16.71;101226.71;107513;1251;110088;-61
2023/04/29 10:50:47;;;;;;;4.60;1.70;;;;;;;26.67;16.66;101222.91;107572;1254;108658;-63
2023/04/29 10:53:21;;;;;;;6.70;1.10;;;;;;;26.51;17.21;101210.77;107602;1251;96555;-63
2023/04/29 10:56:03;;;;;;;6.60;1.70;;;;;;;26.92;16.91;101209.09;107625;1251;96504;-61
2023/04/29 10:58:43;;;;;;;5.20;1.50;;;;;;;26.87;15.51;101210.00;107557;1251;111081;-63
2023/04/29 11:01:16;;;;;;;3.20;1.20;;;;;;;26.65;17.05;101212.88;107657;1251;110027;-63
2023/04/29 11:03:57;;;;;;;;;;;;;;;27.02;17.42;101206.94;107638;1256;105690;-62
2023/04/29 11:06:35;;;;;;;2.50;1.40;;;;;;;27.45;15.97;101208.33;107645;1255;96994;-63
2023/04/29 11:09:13;;;;;;;3.40;1.10;;;;;;;27.37;16.58;101207.71;107583;1251;97084;-61
2023/04/29 11:11:45;;;;;;;8.20;1.30;;;;;;;27.59;16.05;101209.11;107589;1251;110472;-62
2023/04/29 11:14:15;;;;;;;2.70;1.30;;;;;;;27.64;16.25;101206.11;107564;1250;109836;-62
2023/04/29 11:16:52;;;;;;;5.10;1.30;;;;;;;27.94;16.08;101198.55;107608;1254;108518;-62
2023/04/29 11:19:30;;;;;;;7.50;1.20;;;;;;;28.49;16.84;101193.33;107566;1251;96448;-62
2023/04/29 11:22:13;;;;;;;4.30;1.10;;;;;;;29.04;15.99;101187.21;107678;1251;96421;-64
2023/04/29 11:25:10;;;;;;;5.80;1.10;;;;;;;29.39;14.56;101185.23;107604;1251;110385;-62
2023/04/29 11:27:41;;;;;;;6.40;1.20;;;;;;;29.41;15.11;101179.66;107636;1251;109704;-64
2023/04/29 11:30:10;;;;;;;5.30;1.10;;;;;;;29.67;15.10;101177.84;107672;1251;107634;-62
2023/04/29 11:32:41;;;;;;;8.40;1.10;;;;;;;29.93;14.93;101172.72;107607;1251;96501;-62